sensor_id;sensor_type;location;lat;lon;timestamp;P1;durP1;ratioP1;P2;durP2;ratioP2
7215;SDS011;3649;48.798;9.798;2023-12-20T00:02:11;3.60;;;2.63;;
7215;SDS011;3649;48.798;9.798;2023-12-20T00:04:37;4.27;;;2.83;;
7215;SDS011;3649;48.798;9.798;2023-12-20T00:07:04;3.70;;;2.90;;
7215;SDS011;3649;48.798;9.798;2023-12-20T00:09:31;3.00;;;2.70;;
7215;SDS011;3649;48.798;9.798;2023-12-20T00:11:59;3.00;;;2.70;;
7215;SDS011;3649;48.798;9.798;2023-12-20T00:14:26;2.80;;;2.60;;
7215;SDS011;3649;48.798;9.798;2023-12-20T00:16:53;4.63;;;3.37;;
7215;SDS011;3649;48.798;9.798;2023-12-20T00:19:19;5.63;;;2.83;;
7215;SDS011;3649;48.798;9.798;2023-12-20T00:21:46;7.33;;;4.03;;
7215;SDS011;3649;48.798;9.798;2023-12-20T00:24:13;7.00;;;4.30;;
7215;SDS011;3649;48.798;9.798;2023-12-20T00:26:40;5.30;;;4.27;;
7215;SDS011;3649;48.798;9.798;2023-12-20T00:29:07;4.80;;;4.07;;
7215;SDS011;3649;48.798;9.798;2023-12-20T00:31:34;4.47;;;3.20;;
7215;SDS011;3649;48.798;9.798;2023-12-20T00:34:00;3.63;;;3.27;;
7215;SDS011;3649;48.798;9.798;2023-12-20T00:36:27;2.90;;;2.67;;
7215;SDS011;3649;48.798;9.798;2023-12-20T00:38:54;2.93;;;2.63;;
7215;SDS011;3649;48.798;9.798;2023-12-20T00:41:21;3.57;;;2.40;;
7215;SDS011;3649;48.798;9.798;2023-12-20T00:43:48;2.40;;;2.20;;
7215;SDS011;3649;48.798;9.798;2023-12-20T00:46:15;2.40;;;2.20;;
7215;SDS011;3649;48.798;9.798;2023-12-20T00:48:41;2.10;;;2.00;;
7215;SDS011;3649;48.798;9.798;2023-12-20T00:51:08;2.20;;;2.10;;
7215;SDS011;3649;48.798;9.798;2023-12-20T00:53:35;2.20;;;2.10;;
7215;SDS011;3649;48.798;9.798;2023-12-20T00:56:02;3.07;;;1.80;;
7215;SDS011;3649;48.798;9.798;2023-12-20T00:58:29;6.03;;;3.83;;
7215;SDS011;3649;48.798;9.798;2023-12-20T01:00:56;3.00;;;2.77;;
7215;SDS011;3649;48.798;9.798;2023-12-20T01:03:24;3.20;;;2.87;;
7215;SDS011;3649;48.798;9.798;2023-12-20T01:05:51;4.93;;;3.87;;
7215;SDS011;3649;48.798;9.798;2023-12-20T01:08:18;7.10;;;4.13;;
7215;SDS011;3649;48.798;9.798;2023-12-20T01:10:47;4.77;;;3.60;;
7215;SDS011;3649;48.798;9.798;2023-12-20T01:13:14;4.73;;;3.03;;
7215;SDS011;3649;48.798;9.798;2023-12-20T01:15:41;7.80;;;4.63;;
7215;SDS011;3649;48.798;9.798;2023-12-20T01:18:07;8.83;;;4.20;;
7215;SDS011;3649;48.798;9.798;2023-12-20T01:20:35;6.50;;;4.20;;
7215;SDS011;3649;48.798;9.798;2023-12-20T01:23:02;6.47;;;4.43;;
7215;SDS011;3649;48.798;9.798;2023-12-20T01:25:29;9.67;;;5.03;;
7215;SDS011;3649;48.798;9.798;2023-12-20T01:27:56;10.10;;;5.27;;
7215;SDS011;3649;48.798;9.798;2023-12-20T01:30:23;6.33;;;4.10;;
7215;SDS011;3649;48.798;9.798;2023-12-20T01:32:50;3.30;;;2.57;;
7215;SDS011;3649;48.798;9.798;2023-12-20T01:35:17;3.17;;;2.57;;
7215;SDS011;3649;48.798;9.798;2023-12-20T01:37:45;3.17;;;2.80;;
7215;SDS011;3649;48.798;9.798;2023-12-20T01:40:12;3.47;;;2.73;;
7215;SDS011;3649;48.798;9.798;2023-12-20T01:42:39;4.00;;;3.30;;
7215;SDS011;3649;48.798;9.798;2023-12-20T01:45:06;3.17;;;2.67;;
7215;SDS011;3649;48.798;9.798;2023-12-20T01:47:33;2.50;;;2.30;;
7215;SDS011;3649;48.798;9.798;2023-12-20T01:50:00;3.63;;;3.07;;
7215;SDS011;3649;48.798;9.798;2023-12-20T01:52:30;4.30;;;3.10;;
7215;SDS011;3649;48.798;9.798;2023-12-20T01:54:59;4.13;;;3.10;;
7215;SDS011;3649;48.798;9.798;2023-12-20T01:57:29;3.57;;;3.10;;
7215;SDS011;3649;48.798;9.798;2023-12-20T01:59:57;3.67;;;2.90;;
7215;SDS011;3649;48.798;9.798;2023-12-20T02:02:24;2.80;;;2.60;;
7215;SDS011;3649;48.798;9.798;2023-12-20T02:04:53;3.37;;;3.07;;
7215;SDS011;3649;48.798;9.798;2023-12-20T02:07:20;4.10;;;3.00;;
7215;SDS011;3649;48.798;9.798;2023-12-20T02:09:48;3.20;;;2.27;;
7215;SDS011;3649;48.798;9.798;2023-12-20T02:12:16;2.33;;;2.23;;
7215;SDS011;3649;48.798;9.798;2023-12-20T02:14:43;3.70;;;2.43;;
7215;SDS011;3649;48.798;9.798;2023-12-20T02:17:10;3.33;;;2.63;;
7215;SDS011;3649;48.798;9.798;2023-12-20T02:19:36;4.43;;;2.47;;
7215;SDS011;3649;48.798;9.798;2023-12-20T02:22:10;2.87;;;2.67;;
7215;SDS011;3649;48.798;9.798;2023-12-20T02:24:38;2.93;;;2.73;;
7215;SDS011;3649;48.798;9.798;2023-12-20T02:27:05;2.87;;;2.67;;
7215;SDS011;3649;48.798;9.798;2023-12-20T02:29:33;2.20;;;2.10;;
7215;SDS011;3649;48.798;9.798;2023-12-20T02:32:01;2.57;;;2.20;;
7215;SDS011;3649;48.798;9.798;2023-12-20T02:34:27;2.37;;;2.10;;
7215;SDS011;3649;48.798;9.798;2023-12-20T02:36:54;4.00;;;2.00;;
7215;SDS011;3649;48.798;9.798;2023-12-20T02:39:22;1.83;;;1.73;;
7215;SDS011;3649;48.798;9.798;2023-12-20T02:41:49;2.33;;;2.07;;
7215;SDS011;3649;48.798;9.798;2023-12-20T02:44:16;1.90;;;1.80;;
7215;SDS011;3649;48.798;9.798;2023-12-20T02:46:43;2.00;;;1.90;;
7215;SDS011;3649;48.798;9.798;2023-12-20T02:49:09;2.00;;;1.90;;
7215;SDS011;3649;48.798;9.798;2023-12-20T02:51:36;1.90;;;1.80;;
7215;SDS011;3649;48.798;9.798;2023-12-20T02:54:06;1.70;;;1.60;;
7215;SDS011;3649;48.798;9.798;2023-12-20T02:56:33;2.00;;;1.90;;
7215;SDS011;3649;48.798;9.798;2023-12-20T02:59:00;1.70;;;1.60;;
7215;SDS011;3649;48.798;9.798;2023-12-20T03:01:28;2.03;;;1.93;;
7215;SDS011;3649;48.798;9.798;2023-12-20T03:03:56;2.33;;;2.10;;
7215;SDS011;3649;48.798;9.798;2023-12-20T03:06:23;2.40;;;2.30;;
7215;SDS011;3649;48.798;9.798;2023-12-20T03:08:50;1.93;;;1.83;;
7215;SDS011;3649;48.798;9.798;2023-12-20T03:11:17;2.30;;;2.10;;
7215;SDS011;3649;48.798;9.798;2023-12-20T03:13:44;2.03;;;1.93;;
7215;SDS011;3649;48.798;9.798;2023-12-20T03:16:11;1.97;;;1.80;;
7215;SDS011;3649;48.798;9.798;2023-12-20T03:18:39;2.10;;;2.00;;
7215;SDS011;3649;48.798;9.798;2023-12-20T03:21:06;1.93;;;1.80;;
7215;SDS011;3649;48.798;9.798;2023-12-20T03:23:33;1.80;;;1.70;;
7215;SDS011;3649;48.798;9.798;2023-12-20T03:26:00;1.73;;;1.70;;
7215;SDS011;3649;48.798;9.798;2023-12-20T03:28:27;1.60;;;1.60;;
7215;SDS011;3649;48.798;9.798;2023-12-20T03:30:54;2.10;;;2.00;;
7215;SDS011;3649;48.798;9.798;2023-12-20T03:33:21;3.40;;;2.23;;
7215;SDS011;3649;48.798;9.798;2023-12-20T03:35:47;2.03;;;1.87;;
7215;SDS011;3649;48.798;9.798;2023-12-20T03:38:14;1.90;;;1.80;;
7215;SDS011;3649;48.798;9.798;2023-12-20T03:40:41;2.30;;;2.13;;
7215;SDS011;3649;48.798;9.798;2023-12-20T03:43:08;2.00;;;1.90;;
7215;SDS011;3649;48.798;9.798;2023-12-20T03:45:35;2.00;;;1.90;;
7215;SDS011;3649;48.798;9.798;2023-12-20T03:48:02;1.90;;;1.80;;
7215;SDS011;3649;48.798;9.798;2023-12-20T03:50:29;2.20;;;2.00;;
7215;SDS011;3649;48.798;9.798;2023-12-20T03:52:56;3.57;;;2.03;;
7215;SDS011;3649;48.798;9.798;2023-12-20T03:55:23;3.00;;;2.00;;
7215;SDS011;3649;48.798;9.798;2023-12-20T03:57:50;2.33;;;2.23;;
7215;SDS011;3649;48.798;9.798;2023-12-20T04:00:16;2.33;;;2.23;;
7215;SDS011;3649;48.798;9.798;2023-12-20T04:02:43;2.87;;;1.97;;
7215;SDS011;3649;48.798;9.798;2023-12-20T04:05:10;1.87;;;1.77;;
7215;SDS011;3649;48.798;9.798;2023-12-20T04:07:37;1.40;;;1.40;;
7215;SDS011;3649;48.798;9.798;2023-12-20T04:10:04;1.47;;;1.40;;
7215;SDS011;3649;48.798;9.798;2023-12-20T04:12:32;1.40;;;1.40;;
7215;SDS011;3649;48.798;9.798;2023-12-20T04:14:59;2.00;;;1.50;;
7215;SDS011;3649;48.798;9.798;2023-12-20T04:17:26;1.53;;;1.50;;
7215;SDS011;3649;48.798;9.798;2023-12-20T04:19:53;1.60;;;1.50;;
7215;SDS011;3649;48.798;9.798;2023-12-20T04:22:20;1.30;;;1.20;;
7215;SDS011;3649;48.798;9.798;2023-12-20T04:24:47;1.10;;;1.10;;
7215;SDS011;3649;48.798;9.798;2023-12-20T04:27:14;1.70;;;1.60;;
7215;SDS011;3649;48.798;9.798;2023-12-20T04:29:41;1.80;;;1.70;;
7215;SDS011;3649;48.798;9.798;2023-12-20T04:32:07;1.90;;;1.80;;
7215;SDS011;3649;48.798;9.798;2023-12-20T04:34:34;1.80;;;1.70;;
7215;SDS011;3649;48.798;9.798;2023-12-20T04:37:02;1.80;;;1.70;;
7215;SDS011;3649;48.798;9.798;2023-12-20T04:39:29;1.50;;;1.50;;
7215;SDS011;3649;48.798;9.798;2023-12-20T04:41:55;1.73;;;1.63;;
7215;SDS011;3649;48.798;9.798;2023-12-20T04:44:22;1.57;;;1.47;;
7215;SDS011;3649;48.798;9.798;2023-12-20T04:46:49;2.03;;;1.60;;
7215;SDS011;3649;48.798;9.798;2023-12-20T04:49:16;1.37;;;1.37;;
7215;SDS011;3649;48.798;9.798;2023-12-20T04:51:43;1.73;;;1.60;;
7215;SDS011;3649;48.798;9.798;2023-12-20T04:54:10;1.50;;;1.50;;
7215;SDS011;3649;48.798;9.798;2023-12-20T04:56:37;1.47;;;1.47;;
7215;SDS011;3649;48.798;9.798;2023-12-20T04:59:03;1.60;;;1.50;;
7215;SDS011;3649;48.798;9.798;2023-12-20T05:01:30;1.30;;;1.30;;
7215;SDS011;3649;48.798;9.798;2023-12-20T05:03:57;1.50;;;1.40;;
7215;SDS011;3649;48.798;9.798;2023-12-20T05:06:24;1.07;;;1.07;;
7215;SDS011;3649;48.798;9.798;2023-12-20T05:08:51;1.20;;;1.20;;
7215;SDS011;3649;48.798;9.798;2023-12-20T05:11:17;1.30;;;1.30;;
7215;SDS011;3649;48.798;9.798;2023-12-20T05:13:44;1.53;;;1.53;;
7215;SDS011;3649;48.798;9.798;2023-12-20T05:16:16;1.23;;;1.20;;
7215;SDS011;3649;48.798;9.798;2023-12-20T05:18:45;1.30;;;1.30;;
7215;SDS011;3649;48.798;9.798;2023-12-20T05:21:14;1.60;;;1.50;;
7215;SDS011;3649;48.798;9.798;2023-12-20T05:23:40;3.40;;;1.67;;
7215;SDS011;3649;48.798;9.798;2023-12-20T05:26:07;1.60;;;1.50;;
7215;SDS011;3649;48.798;9.798;2023-12-20T05:28:34;3.23;;;1.60;;
7215;SDS011;3649;48.798;9.798;2023-12-20T05:31:01;1.60;;;1.50;;
7215;SDS011;3649;48.798;9.798;2023-12-20T05:33:30;2.10;;;1.93;;
7215;SDS011;3649;48.798;9.798;2023-12-20T05:35:57;2.03;;;1.93;;
7215;SDS011;3649;48.798;9.798;2023-12-20T05:38:24;1.80;;;1.70;;
7215;SDS011;3649;48.798;9.798;2023-12-20T05:40:50;2.00;;;1.90;;
7215;SDS011;3649;48.798;9.798;2023-12-20T05:43:20;1.90;;;1.80;;
7215;SDS011;3649;48.798;9.798;2023-12-20T05:45:47;2.00;;;1.90;;
7215;SDS011;3649;48.798;9.798;2023-12-20T05:48:14;1.97;;;1.73;;
7215;SDS011;3649;48.798;9.798;2023-12-20T05:50:41;2.03;;;1.90;;
7215;SDS011;3649;48.798;9.798;2023-12-20T05:53:08;1.67;;;1.67;;
7215;SDS011;3649;48.798;9.798;2023-12-20T05:55:35;2.30;;;2.10;;
7215;SDS011;3649;48.798;9.798;2023-12-20T05:58:02;2.70;;;1.97;;
7215;SDS011;3649;48.798;9.798;2023-12-20T06:00:29;8.60;;;5.40;;
7215;SDS011;3649;48.798;9.798;2023-12-20T06:02:56;2.13;;;2.03;;
7215;SDS011;3649;48.798;9.798;2023-12-20T06:05:22;3.77;;;2.30;;
7215;SDS011;3649;48.798;9.798;2023-12-20T06:07:49;2.47;;;2.27;;
7215;SDS011;3649;48.798;9.798;2023-12-20T06:10:17;2.03;;;1.80;;
7215;SDS011;3649;48.798;9.798;2023-12-20T06:12:44;2.40;;;2.30;;
7215;SDS011;3649;48.798;9.798;2023-12-20T06:15:13;2.17;;;1.97;;
7215;SDS011;3649;48.798;9.798;2023-12-20T06:17:40;2.10;;;2.00;;
7215;SDS011;3649;48.798;9.798;2023-12-20T06:20:07;2.23;;;2.13;;
7215;SDS011;3649;48.798;9.798;2023-12-20T06:22:35;2.80;;;2.50;;
7215;SDS011;3649;48.798;9.798;2023-12-20T06:25:02;2.27;;;2.10;;
7215;SDS011;3649;48.798;9.798;2023-12-20T06:27:30;1.73;;;1.63;;
7215;SDS011;3649;48.798;9.798;2023-12-20T06:29:58;2.60;;;1.70;;
7215;SDS011;3649;48.798;9.798;2023-12-20T06:32:26;2.20;;;2.00;;
7215;SDS011;3649;48.798;9.798;2023-12-20T06:34:52;1.73;;;1.73;;
7215;SDS011;3649;48.798;9.798;2023-12-20T06:37:19;1.90;;;1.80;;
7215;SDS011;3649;48.798;9.798;2023-12-20T06:39:46;2.70;;;2.50;;
7215;SDS011;3649;48.798;9.798;2023-12-20T06:42:13;2.10;;;2.00;;
7215;SDS011;3649;48.798;9.798;2023-12-20T06:44:40;2.00;;;1.90;;
7215;SDS011;3649;48.798;9.798;2023-12-20T06:47:07;3.93;;;2.33;;
7215;SDS011;3649;48.798;9.798;2023-12-20T06:49:34;2.03;;;1.93;;
7215;SDS011;3649;48.798;9.798;2023-12-20T06:52:01;4.10;;;2.50;;
7215;SDS011;3649;48.798;9.798;2023-12-20T06:54:28;3.60;;;2.67;;
7215;SDS011;3649;48.798;9.798;2023-12-20T06:56:55;2.37;;;2.17;;
7215;SDS011;3649;48.798;9.798;2023-12-20T06:59:22;2.10;;;2.00;;
7215;SDS011;3649;48.798;9.798;2023-12-20T07:01:49;3.90;;;2.40;;
7215;SDS011;3649;48.798;9.798;2023-12-20T07:04:16;3.07;;;2.00;;
7215;SDS011;3649;48.798;9.798;2023-12-20T07:06:48;2.00;;;1.90;;
7215;SDS011;3649;48.798;9.798;2023-12-20T07:09:18;2.07;;;1.97;;
7215;SDS011;3649;48.798;9.798;2023-12-20T07:11:45;2.37;;;2.27;;
7215;SDS011;3649;48.798;9.798;2023-12-20T07:14:12;2.17;;;1.97;;
7215;SDS011;3649;48.798;9.798;2023-12-20T07:16:38;2.63;;;2.50;;
7215;SDS011;3649;48.798;9.798;2023-12-20T07:19:06;2.20;;;2.10;;
7215;SDS011;3649;48.798;9.798;2023-12-20T07:21:33;3.50;;;2.17;;
7215;SDS011;3649;48.798;9.798;2023-12-20T07:24:01;2.07;;;1.97;;
7215;SDS011;3649;48.798;9.798;2023-12-20T07:26:27;2.50;;;2.37;;
7215;SDS011;3649;48.798;9.798;2023-12-20T07:28:54;2.80;;;2.60;;
7215;SDS011;3649;48.798;9.798;2023-12-20T07:31:21;2.80;;;2.20;;
7215;SDS011;3649;48.798;9.798;2023-12-20T07:33:50;4.93;;;3.03;;
7215;SDS011;3649;48.798;9.798;2023-12-20T07:36:19;6.70;;;2.70;;
7215;SDS011;3649;48.798;9.798;2023-12-20T07:38:46;5.77;;;3.47;;
7215;SDS011;3649;48.798;9.798;2023-12-20T07:41:13;6.70;;;2.30;;
7215;SDS011;3649;48.798;9.798;2023-12-20T07:43:39;2.40;;;2.20;;
7215;SDS011;3649;48.798;9.798;2023-12-20T07:46:09;3.03;;;2.80;;
7215;SDS011;3649;48.798;9.798;2023-12-20T07:48:36;1.93;;;1.83;;
7215;SDS011;3649;48.798;9.798;2023-12-20T07:51:04;2.27;;;1.83;;
7215;SDS011;3649;48.798;9.798;2023-12-20T07:53:33;1.70;;;1.70;;
7215;SDS011;3649;48.798;9.798;2023-12-20T07:56:00;2.20;;;1.90;;
7215;SDS011;3649;48.798;9.798;2023-12-20T07:58:27;2.27;;;2.10;;
7215;SDS011;3649;48.798;9.798;2023-12-20T08:01:15;2.03;;;1.93;;
7215;SDS011;3649;48.798;9.798;2023-12-20T08:03:42;2.30;;;2.20;;
7215;SDS011;3649;48.798;9.798;2023-12-20T08:06:09;2.40;;;2.20;;
7215;SDS011;3649;48.798;9.798;2023-12-20T08:08:36;3.53;;;3.33;;
7215;SDS011;3649;48.798;9.798;2023-12-20T08:11:03;2.50;;;2.30;;
7215;SDS011;3649;48.798;9.798;2023-12-20T08:13:30;2.40;;;2.30;;
7215;SDS011;3649;48.798;9.798;2023-12-20T08:15:57;2.80;;;2.70;;
7215;SDS011;3649;48.798;9.798;2023-12-20T08:18:24;2.43;;;2.33;;
7215;SDS011;3649;48.798;9.798;2023-12-20T08:20:50;3.17;;;2.87;;
7215;SDS011;3649;48.798;9.798;2023-12-20T08:23:20;2.50;;;2.40;;
7215;SDS011;3649;48.798;9.798;2023-12-20T08:25:50;2.47;;;2.37;;
7215;SDS011;3649;48.798;9.798;2023-12-20T08:28:17;2.70;;;2.60;;
7215;SDS011;3649;48.798;9.798;2023-12-20T08:30:44;2.83;;;2.70;;
7215;SDS011;3649;48.798;9.798;2023-12-20T08:33:11;3.00;;;2.47;;
7215;SDS011;3649;48.798;9.798;2023-12-20T08:35:39;3.07;;;2.87;;
7215;SDS011;3649;48.798;9.798;2023-12-20T08:38:06;3.40;;;3.20;;
7215;SDS011;3649;48.798;9.798;2023-12-20T08:40:33;3.57;;;3.30;;
7215;SDS011;3649;48.798;9.798;2023-12-20T08:43:00;3.40;;;3.20;;
7215;SDS011;3649;48.798;9.798;2023-12-20T08:45:27;4.37;;;3.67;;
7215;SDS011;3649;48.798;9.798;2023-12-20T08:47:54;4.07;;;3.87;;
7215;SDS011;3649;48.798;9.798;2023-12-20T08:50:24;4.47;;;4.17;;
7215;SDS011;3649;48.798;9.798;2023-12-20T08:52:51;3.90;;;3.57;;
7215;SDS011;3649;48.798;9.798;2023-12-20T08:55:18;3.93;;;3.53;;
7215;SDS011;3649;48.798;9.798;2023-12-20T08:57:46;3.73;;;3.50;;
7215;SDS011;3649;48.798;9.798;2023-12-20T09:00:13;4.10;;;3.80;;
7215;SDS011;3649;48.798;9.798;2023-12-20T09:02:41;3.87;;;3.53;;
7215;SDS011;3649;48.798;9.798;2023-12-20T09:05:07;3.60;;;3.33;;
7215;SDS011;3649;48.798;9.798;2023-12-20T09:07:35;3.70;;;3.40;;
7215;SDS011;3649;48.798;9.798;2023-12-20T09:10:02;3.47;;;3.17;;
7215;SDS011;3649;48.798;9.798;2023-12-20T09:12:29;3.73;;;3.43;;
7215;SDS011;3649;48.798;9.798;2023-12-20T09:14:55;3.70;;;3.50;;
7215;SDS011;3649;48.798;9.798;2023-12-20T09:17:22;3.40;;;3.20;;
7215;SDS011;3649;48.798;9.798;2023-12-20T09:19:49;3.30;;;3.03;;
7215;SDS011;3649;48.798;9.798;2023-12-20T09:22:18;3.30;;;3.10;;
7215;SDS011;3649;48.798;9.798;2023-12-20T09:24:46;4.33;;;4.03;;
7215;SDS011;3649;48.798;9.798;2023-12-20T09:27:13;4.13;;;3.73;;
7215;SDS011;3649;48.798;9.798;2023-12-20T09:29:39;3.53;;;3.23;;
7215;SDS011;3649;48.798;9.798;2023-12-20T09:32:07;3.40;;;3.10;;
7215;SDS011;3649;48.798;9.798;2023-12-20T09:34:34;3.67;;;3.07;;
7215;SDS011;3649;48.798;9.798;2023-12-20T09:37:01;3.97;;;3.67;;
7215;SDS011;3649;48.798;9.798;2023-12-20T09:39:29;3.80;;;3.50;;
7215;SDS011;3649;48.798;9.798;2023-12-20T09:42:01;3.37;;;3.03;;
7215;SDS011;3649;48.798;9.798;2023-12-20T09:44:30;4.30;;;3.90;;
7215;SDS011;3649;48.798;9.798;2023-12-20T09:46:59;4.53;;;4.10;;
7215;SDS011;3649;48.798;9.798;2023-12-20T09:49:28;3.60;;;3.30;;
7215;SDS011;3649;48.798;9.798;2023-12-20T09:51:56;3.90;;;3.00;;
7215;SDS011;3649;48.798;9.798;2023-12-20T09:54:23;3.90;;;3.50;;
7215;SDS011;3649;48.798;9.798;2023-12-20T09:56:53;3.30;;;3.00;;
7215;SDS011;3649;48.798;9.798;2023-12-20T09:59:19;3.47;;;3.17;;
7215;SDS011;3649;48.798;9.798;2023-12-20T10:01:47;3.70;;;3.20;;
7215;SDS011;3649;48.798;9.798;2023-12-20T10:04:15;5.40;;;3.13;;
7215;SDS011;3649;48.798;9.798;2023-12-20T10:06:55;3.40;;;3.10;;
7215;SDS011;3649;48.798;9.798;2023-12-20T10:09:23;3.20;;;2.60;;
7215;SDS011;3649;48.798;9.798;2023-12-20T10:11:50;4.30;;;2.77;;
7215;SDS011;3649;48.798;9.798;2023-12-20T10:14:21;5.27;;;2.90;;
7215;SDS011;3649;48.798;9.798;2023-12-20T10:16:49;5.37;;;3.03;;
7215;SDS011;3649;48.798;9.798;2023-12-20T10:19:17;2.63;;;2.43;;
7215;SDS011;3649;48.798;9.798;2023-12-20T10:21:47;2.90;;;2.53;;
7215;SDS011;3649;48.798;9.798;2023-12-20T10:24:17;3.37;;;2.87;;
7215;SDS011;3649;48.798;9.798;2023-12-20T10:26:44;2.67;;;2.47;;
7215;SDS011;3649;48.798;9.798;2023-12-20T10:29:11;3.40;;;2.97;;
7215;SDS011;3649;48.798;9.798;2023-12-20T10:31:38;6.53;;;2.43;;
7215;SDS011;3649;48.798;9.798;2023-12-20T10:34:05;2.60;;;2.40;;
7215;SDS011;3649;48.798;9.798;2023-12-20T10:36:32;4.80;;;2.33;;
7215;SDS011;3649;48.798;9.798;2023-12-20T10:38:59;2.70;;;2.27;;
7215;SDS011;3649;48.798;9.798;2023-12-20T10:41:31;2.63;;;2.53;;
7215;SDS011;3649;48.798;9.798;2023-12-20T10:44:02;4.57;;;2.47;;
7215;SDS011;3649;48.798;9.798;2023-12-20T10:46:31;2.80;;;2.47;;
7215;SDS011;3649;48.798;9.798;2023-12-20T10:48:59;3.83;;;2.50;;
7215;SDS011;3649;48.798;9.798;2023-12-20T10:51:29;3.23;;;2.97;;
7215;SDS011;3649;48.798;9.798;2023-12-20T10:53:57;5.47;;;2.40;;
7215;SDS011;3649;48.798;9.798;2023-12-20T10:56:24;3.73;;;2.47;;
7215;SDS011;3649;48.798;9.798;2023-12-20T10:58:53;3.90;;;2.47;;
7215;SDS011;3649;48.798;9.798;2023-12-20T11:01:22;8.77;;;2.60;;
7215;SDS011;3649;48.798;9.798;2023-12-20T11:06:36;4.57;;;2.30;;
7215;SDS011;3649;48.798;9.798;2023-12-20T11:11:51;4.27;;;2.60;;
7215;SDS011;3649;48.798;9.798;2023-12-20T11:17:10;6.00;;;2.37;;
7215;SDS011;3649;48.798;9.798;2023-12-20T11:20:03;5.27;;;2.20;;
7215;SDS011;3649;48.798;9.798;2023-12-20T11:22:31;5.20;;;2.83;;
7215;SDS011;3649;48.798;9.798;2023-12-20T11:25:06;4.60;;;2.43;;
7215;SDS011;3649;48.798;9.798;2023-12-20T11:27:41;5.20;;;2.50;;
7215;SDS011;3649;48.798;9.798;2023-12-20T11:30:15;10.60;;;5.83;;
7215;SDS011;3649;48.798;9.798;2023-12-20T11:32:43;7.53;;;2.13;;
7215;SDS011;3649;48.798;9.798;2023-12-20T11:37:40;4.93;;;2.30;;
7215;SDS011;3649;48.798;9.798;2023-12-20T11:40:14;4.63;;;3.00;;
7215;SDS011;3649;48.798;9.798;2023-12-20T11:42:46;3.77;;;2.47;;
7215;SDS011;3649;48.798;9.798;2023-12-20T11:45:17;8.13;;;2.77;;
7215;SDS011;3649;48.798;9.798;2023-12-20T11:47:48;4.73;;;2.23;;
7215;SDS011;3649;48.798;9.798;2023-12-20T11:50:22;2.50;;;1.83;;
7215;SDS011;3649;48.798;9.798;2023-12-20T11:52:50;6.33;;;2.10;;
7215;SDS011;3649;48.798;9.798;2023-12-20T11:55:18;5.37;;;2.20;;
7215;SDS011;3649;48.798;9.798;2023-12-20T11:57:45;5.13;;;1.80;;
7215;SDS011;3649;48.798;9.798;2023-12-20T12:00:13;3.10;;;2.00;;
7215;SDS011;3649;48.798;9.798;2023-12-20T12:02:41;5.80;;;2.90;;
7215;SDS011;3649;48.798;9.798;2023-12-20T12:05:11;4.83;;;2.63;;
7215;SDS011;3649;48.798;9.798;2023-12-20T12:07:38;5.70;;;2.03;;
7215;SDS011;3649;48.798;9.798;2023-12-20T12:10:05;6.33;;;2.70;;
7215;SDS011;3649;48.798;9.798;2023-12-20T12:12:34;3.57;;;2.77;;
7215;SDS011;3649;48.798;9.798;2023-12-20T12:15:03;4.63;;;1.97;;
7215;SDS011;3649;48.798;9.798;2023-12-20T12:17:30;4.10;;;2.27;;
7215;SDS011;3649;48.798;9.798;2023-12-20T12:20:02;4.47;;;2.07;;
7215;SDS011;3649;48.798;9.798;2023-12-20T12:22:30;5.97;;;2.40;;
7215;SDS011;3649;48.798;9.798;2023-12-20T12:24:59;6.30;;;2.70;;
7215;SDS011;3649;48.798;9.798;2023-12-20T12:27:36;15.43;;;5.60;;
7215;SDS011;3649;48.798;9.798;2023-12-20T12:30:05;6.87;;;2.83;;
7215;SDS011;3649;48.798;9.798;2023-12-20T12:32:34;7.03;;;2.10;;
7215;SDS011;3649;48.798;9.798;2023-12-20T12:35:04;3.87;;;1.90;;
7215;SDS011;3649;48.798;9.798;2023-12-20T12:37:35;4.93;;;2.67;;
7215;SDS011;3649;48.798;9.798;2023-12-20T12:40:06;4.53;;;2.40;;
7215;SDS011;3649;48.798;9.798;2023-12-20T12:42:36;8.17;;;2.40;;
7215;SDS011;3649;48.798;9.798;2023-12-20T12:45:04;6.47;;;2.30;;
7215;SDS011;3649;48.798;9.798;2023-12-20T12:47:31;6.33;;;2.20;;
7215;SDS011;3649;48.798;9.798;2023-12-20T12:49:59;7.77;;;2.47;;
7215;SDS011;3649;48.798;9.798;2023-12-20T12:52:26;4.77;;;2.40;;
7215;SDS011;3649;48.798;9.798;2023-12-20T12:54:53;2.50;;;1.90;;
7215;SDS011;3649;48.798;9.798;2023-12-20T12:57:20;6.37;;;2.53;;
7215;SDS011;3649;48.798;9.798;2023-12-20T12:59:47;5.97;;;2.20;;
7215;SDS011;3649;48.798;9.798;2023-12-20T13:02:14;6.90;;;2.00;;
7215;SDS011;3649;48.798;9.798;2023-12-20T13:04:41;5.27;;;2.13;;
7215;SDS011;3649;48.798;9.798;2023-12-20T13:07:09;6.27;;;2.20;;
7215;SDS011;3649;48.798;9.798;2023-12-20T13:09:39;2.97;;;2.10;;
7215;SDS011;3649;48.798;9.798;2023-12-20T13:12:07;7.17;;;2.23;;
7215;SDS011;3649;48.798;9.798;2023-12-20T13:14:34;4.57;;;2.57;;
7215;SDS011;3649;48.798;9.798;2023-12-20T13:17:03;8.27;;;2.90;;
7215;SDS011;3649;48.798;9.798;2023-12-20T13:19:30;6.00;;;2.27;;
7215;SDS011;3649;48.798;9.798;2023-12-20T13:21:58;2.73;;;2.37;;
7215;SDS011;3649;48.798;9.798;2023-12-20T13:24:25;5.50;;;2.10;;
7215;SDS011;3649;48.798;9.798;2023-12-20T13:26:51;3.50;;;1.97;;
7215;SDS011;3649;48.798;9.798;2023-12-20T13:29:18;3.80;;;2.00;;
7215;SDS011;3649;48.798;9.798;2023-12-20T13:31:45;5.70;;;2.10;;
7215;SDS011;3649;48.798;9.798;2023-12-20T13:34:12;4.57;;;1.80;;
7215;SDS011;3649;48.798;9.798;2023-12-20T13:36:39;4.83;;;2.20;;
7215;SDS011;3649;48.798;9.798;2023-12-20T13:39:06;4.67;;;2.23;;
7215;SDS011;3649;48.798;9.798;2023-12-20T13:41:34;3.87;;;2.20;;
7215;SDS011;3649;48.798;9.798;2023-12-20T13:44:00;3.10;;;2.10;;
7215;SDS011;3649;48.798;9.798;2023-12-20T13:46:29;4.80;;;2.23;;
7215;SDS011;3649;48.798;9.798;2023-12-20T13:48:56;2.77;;;2.43;;
7215;SDS011;3649;48.798;9.798;2023-12-20T13:51:23;8.67;;;2.70;;
7215;SDS011;3649;48.798;9.798;2023-12-20T13:53:50;4.03;;;2.17;;
7215;SDS011;3649;48.798;9.798;2023-12-20T13:56:17;3.70;;;2.33;;
7215;SDS011;3649;48.798;9.798;2023-12-20T13:58:46;4.63;;;2.00;;
7215;SDS011;3649;48.798;9.798;2023-12-20T14:01:13;9.27;;;2.47;;
7215;SDS011;3649;48.798;9.798;2023-12-20T14:03:40;3.37;;;2.30;;
7215;SDS011;3649;48.798;9.798;2023-12-20T14:06:07;8.37;;;2.70;;
7215;SDS011;3649;48.798;9.798;2023-12-20T14:08:34;2.07;;;1.93;;
7215;SDS011;3649;48.798;9.798;2023-12-20T14:11:02;5.00;;;2.93;;
7215;SDS011;3649;48.798;9.798;2023-12-20T14:13:29;6.70;;;2.77;;
7215;SDS011;3649;48.798;9.798;2023-12-20T14:15:57;3.67;;;2.67;;
7215;SDS011;3649;48.798;9.798;2023-12-20T14:18:27;7.23;;;2.83;;
7215;SDS011;3649;48.798;9.798;2023-12-20T14:20:54;5.90;;;3.40;;
7215;SDS011;3649;48.798;9.798;2023-12-20T14:23:21;3.70;;;2.63;;
7215;SDS011;3649;48.798;9.798;2023-12-20T14:25:49;3.87;;;2.00;;
7215;SDS011;3649;48.798;9.798;2023-12-20T14:28:18;2.77;;;2.17;;
7215;SDS011;3649;48.798;9.798;2023-12-20T14:30:45;4.83;;;1.97;;
7215;SDS011;3649;48.798;9.798;2023-12-20T14:33:12;6.20;;;2.43;;
7215;SDS011;3649;48.798;9.798;2023-12-20T14:35:40;2.37;;;2.13;;
7215;SDS011;3649;48.798;9.798;2023-12-20T14:38:11;7.67;;;2.83;;
7215;SDS011;3649;48.798;9.798;2023-12-20T14:40:41;3.40;;;2.47;;
7215;SDS011;3649;48.798;9.798;2023-12-20T14:43:08;6.03;;;2.77;;
7215;SDS011;3649;48.798;9.798;2023-12-20T14:45:35;2.57;;;1.90;;
7215;SDS011;3649;48.798;9.798;2023-12-20T14:48:02;9.23;;;2.50;;
7215;SDS011;3649;48.798;9.798;2023-12-20T14:50:29;3.70;;;2.50;;
7215;SDS011;3649;48.798;9.798;2023-12-20T14:52:56;3.47;;;2.27;;
7215;SDS011;3649;48.798;9.798;2023-12-20T14:55:23;5.47;;;2.33;;
7215;SDS011;3649;48.798;9.798;2023-12-20T14:57:49;5.57;;;2.40;;
7215;SDS011;3649;48.798;9.798;2023-12-20T15:00:17;5.13;;;2.57;;
7215;SDS011;3649;48.798;9.798;2023-12-20T15:02:45;4.73;;;2.10;;
7215;SDS011;3649;48.798;9.798;2023-12-20T15:05:12;3.47;;;2.17;;
7215;SDS011;3649;48.798;9.798;2023-12-20T15:07:41;4.70;;;3.33;;
7215;SDS011;3649;48.798;9.798;2023-12-20T15:10:08;3.97;;;2.80;;
7215;SDS011;3649;48.798;9.798;2023-12-20T15:12:35;9.90;;;3.17;;
7215;SDS011;3649;48.798;9.798;2023-12-20T15:15:02;4.97;;;2.63;;
7215;SDS011;3649;48.798;9.798;2023-12-20T15:17:29;5.77;;;2.20;;
7215;SDS011;3649;48.798;9.798;2023-12-20T15:19:56;2.73;;;2.40;;
7215;SDS011;3649;48.798;9.798;2023-12-20T15:22:23;6.50;;;2.30;;
7215;SDS011;3649;48.798;9.798;2023-12-20T15:24:52;3.73;;;1.97;;
7215;SDS011;3649;48.798;9.798;2023-12-20T15:27:20;5.33;;;2.60;;
7215;SDS011;3649;48.798;9.798;2023-12-20T15:29:50;5.57;;;2.60;;